createdAt,value
2023-07-10T00:01:52.837Z,12.25
2023-07-10T00:06:50.096Z,12.25
2023-07-10T00:11:49.396Z,12.25
2023-07-10T00:16:48.727Z,12.25
2023-07-10T00:21:48.993Z,11.35
2023-07-10T00:26:47.264Z,11.86
2023-07-10T00:31:46.536Z,10.97
2023-07-10T00:36:45.755Z,10.97
2023-07-10T00:41:45.010Z,11.35
2023-07-10T00:46:43.278Z,11.35
2023-07-10T00:51:43.566Z,11.35
2023-07-10T00:56:42.804Z,11.86
2023-07-10T01:01:42.077Z,12.25
2023-07-10T01:06:41.298Z,11.86
2023-07-10T01:11:40.576Z,12.25
2023-07-10T01:16:39.872Z,11.86
2023-07-10T01:21:39.159Z,10.97
2023-07-10T01:26:38.788Z,10.97
2023-07-10T01:31:38.672Z,11.86
2023-07-10T01:36:37.915Z,10.97
2023-07-10T01:41:38.172Z,11.86
2023-07-10T01:46:35.419Z,11.86
2023-07-10T01:51:36.648Z,11.86
2023-07-10T01:56:33.921Z,11.86
2023-07-10T02:01:34.238Z,11.86
2023-07-10T02:06:32.480Z,11.86
2023-07-10T02:11:31.799Z,10.97
2023-07-10T02:16:32.993Z,10.97
2023-07-10T02:21:31.255Z,10.97
2023-07-10T02:26:29.489Z,10.97
2023-07-10T02:31:28.789Z,10.97
2023-07-10T02:36:28.083Z,10.97
2023-07-10T02:41:28.359Z,10.97
2023-07-10T02:46:26.671Z,10.97
2023-07-10T02:51:25.756Z,10.97
2023-07-10T02:56:26.009Z,10.97
2023-07-10T03:01:25.250Z,10.97
2023-07-10T03:06:24.486Z,10.97
2023-07-10T03:11:23.709Z,10.97
2023-07-10T03:16:22.943Z,10.97
2023-07-10T03:21:21.172Z,10.97
2023-07-10T03:26:20.386Z,10.97
2023-07-10T03:31:19.684Z,10.97
2023-07-10T03:36:18.937Z,10.97
2023-07-10T03:41:19.153Z,10.97
2023-07-10T03:46:17.401Z,10.97
2023-07-10T03:51:16.649Z,10.97
2023-07-10T03:56:16.892Z,10.97
2023-07-10T04:01:15.226Z,10.97
2023-07-10T04:06:14.281Z,10.97
2023-07-10T04:11:13.567Z,10.97
2023-07-10T04:16:14.858Z,10.97
2023-07-10T04:21:13.062Z,10.97
2023-07-10T04:26:12.322Z,10.97
2023-07-10T04:31:11.602Z,10.97
2023-07-10T04:36:09.831Z,10.97
2023-07-10T04:41:09.196Z,10.97
2023-07-10T04:46:09.276Z,10.97
2023-07-10T04:51:07.520Z,10.97
2023-07-10T04:56:06.998Z,10.97
2023-07-10T05:01:04.992Z,10.97
2023-07-10T05:06:06.535Z,10.97
2023-07-10T05:11:04.500Z,10.97
2023-07-10T05:16:05.088Z,10.97
2023-07-10T05:21:03.071Z,10.97
2023-07-10T05:26:02.611Z,10.97
2023-07-10T05:31:00.491Z,10.97
2023-07-10T05:36:02.046Z,10.97
2023-07-10T05:41:00.082Z,10.97
2023-07-10T05:45:59.678Z,10.97
2023-07-10T05:50:58.590Z,10.97
2023-07-10T05:56:00.856Z,10.97
2023-07-10T06:00:57.149Z,10.97
2023-07-10T06:05:56.257Z,10.97
2023-07-10T06:10:55.536Z,10.97
2023-07-10T06:15:55.796Z,11.35
2023-07-10T06:20:54.003Z,11.73
2023-07-10T06:25:54.273Z,12.24
2023-07-10T06:30:52.471Z,11.55
2023-07-10T06:35:51.707Z,11.73
2023-07-10T06:40:50.953Z,12.09
2023-07-10T06:45:50.306Z,12.24
2023-07-10T06:50:49.353Z,12.45
2023-07-10T06:55:49.591Z,12.80
2023-07-10T07:00:49.825Z,12.57
2023-07-10T07:05:47.036Z,12.90
2023-07-10T07:10:48.300Z,12.80
2023-07-10T07:15:46.513Z,12.90
2023-07-10T07:20:44.761Z,13.22
2023-07-10T07:25:44.991Z,13.54
2023-07-10T07:30:45.445Z,13.54
2023-07-10T07:35:42.436Z,13.85
2023-07-10T07:40:41.770Z,13.85
2023-07-10T07:45:41.036Z,13.54
2023-07-10T07:50:40.274Z,14.77
2023-07-10T07:55:39.609Z,14.14
2023-07-10T08:00:40.856Z,15.61
2023-07-10T08:05:39.315Z,14.75
2023-07-10T08:10:39.399Z,15.68
2023-07-10T08:15:36.637Z,15.89
2023-07-10T08:20:35.875Z,15.68
2023-07-10T08:25:36.117Z,15.38
2023-07-10T08:30:34.368Z,15.68
2023-07-10T08:35:33.603Z,15.68
2023-07-10T08:40:32.857Z,15.68
2023-07-10T08:45:32.120Z,15.38
2023-07-10T08:50:31.553Z,15.38
2023-07-10T08:55:30.590Z,15.08
2023-07-10T09:00:29.838Z,15.37
2023-07-10T09:05:30.095Z,15.05
2023-07-10T09:10:28.347Z,15.05
2023-07-10T09:15:28.620Z,14.72
2023-07-10T09:20:26.948Z,15.05
2023-07-10T09:25:28.946Z,15.05
2023-07-10T09:30:26.204Z,15.05
2023-07-10T09:35:24.478Z,15.05
2023-07-10T09:40:23.724Z,15.05
2023-07-10T09:45:24.027Z,14.72
2023-07-10T09:50:22.272Z,14.72
2023-07-10T09:55:21.517Z,14.72
2023-07-10T10:00:20.762Z,14.72
2023-07-10T10:05:21.011Z,14.72
2023-07-10T10:10:19.287Z,14.72
2023-07-10T10:15:18.491Z,14.72
2023-07-10T10:20:17.736Z,14.72
2023-07-10T10:25:16.944Z,14.72
2023-07-10T10:30:16.172Z,14.72
2023-07-10T10:35:17.412Z,14.72
2023-07-10T10:40:15.667Z,14.39
2023-07-10T10:45:13.898Z,14.39
2023-07-10T10:50:14.121Z,14.72
2023-07-10T10:55:12.383Z,15.64
2023-07-10T11:00:10.667Z,15.30
2023-07-10T11:05:10.940Z,15.30
2023-07-10T11:10:10.177Z,15.30
2023-07-10T11:15:09.407Z,15.30
2023-07-10T11:20:09.680Z,15.30
2023-07-10T11:25:10.583Z,15.64
2023-07-10T11:30:09.222Z,15.30
2023-07-10T11:35:18.419Z,15.64
2023-07-10T11:40:05.745Z,15.30
2023-07-10T11:45:04.960Z,15.96
2023-07-10T11:50:03.236Z,15.96
2023-07-10T11:55:02.478Z,15.96
2023-07-10T12:00:02.810Z,16.29
2023-07-10T12:05:04.084Z,16.29
2023-07-10T12:10:01.325Z,16.29
2023-07-10T12:15:00.554Z,16.29
2023-07-10T12:19:59.783Z,16.29
2023-07-10T12:25:00.035Z,16.29
2023-07-10T12:30:00.263Z,16.29
2023-07-10T12:34:59.971Z,16.29
2023-07-10T12:39:56.786Z,16.61
2023-07-10T12:44:56.034Z,16.61
2023-07-10T12:49:55.279Z,16.61
2023-07-10T12:54:55.521Z,16.61
2023-07-10T12:59:54.762Z,16.29
2023-07-10T13:04:53.005Z,16.29
2023-07-10T13:09:52.261Z,16.29
2023-07-10T13:14:51.641Z,16.29
2023-07-10T13:20:06.820Z,16.29
2023-07-10T13:24:51.045Z,16.29
2023-07-10T13:29:50.343Z,16.29
2023-07-10T13:34:50.568Z,16.29
2023-07-10T13:39:47.846Z,16.29
2023-07-10T13:44:47.075Z,17.20
2023-07-10T13:49:46.325Z,17.20
2023-07-10T13:54:46.607Z,17.20
2023-07-10T13:59:46.852Z,17.20
2023-07-10T14:04:44.109Z,17.20
2023-07-10T14:09:43.358Z,17.20
2023-07-10T14:14:42.665Z,17.20
2023-07-10T14:19:41.863Z,17.20
2023-07-10T14:24:42.113Z,17.20
2023-07-10T14:29:40.342Z,17.20
2023-07-10T14:34:39.607Z,17.20
2023-07-10T14:39:38.867Z,17.20
2023-07-10T14:44:39.077Z,17.20
2023-07-10T14:49:37.308Z,17.20
2023-07-10T14:54:36.594Z,17.20
2023-07-10T14:59:35.873Z,16.88
2023-07-10T15:04:36.110Z,16.88
2023-07-10T15:09:34.369Z,16.88
2023-07-10T15:14:33.625Z,16.88
2023-07-10T15:19:32.872Z,16.88
2023-07-10T15:24:32.126Z,16.88
2023-07-10T15:29:31.528Z,16.88
2023-07-10T15:34:32.542Z,16.88
2023-07-10T15:39:29.761Z,16.88
2023-07-10T15:44:29.002Z,16.88
2023-07-10T15:49:28.221Z,16.88
2023-07-10T15:54:29.487Z,16.88
2023-07-10T15:59:29.860Z,16.88
2023-07-10T16:04:26.026Z,16.88
2023-07-10T16:09:26.089Z,16.88
2023-07-10T16:14:25.367Z,16.88
2023-07-10T16:19:24.584Z,16.88
2023-07-10T16:24:22.882Z,16.88
2023-07-10T16:29:24.161Z,16.88
2023-07-10T16:34:21.831Z,16.88
2023-07-10T16:39:20.648Z,16.88
2023-07-10T16:44:20.896Z,16.55
2023-07-10T16:49:21.150Z,16.55
2023-07-10T16:54:19.400Z,16.55
2023-07-10T16:59:19.635Z,16.55
2023-07-10T17:04:16.896Z,16.55
2023-07-10T17:09:16.152Z,16.55
2023-07-10T17:14:15.458Z,16.55
2023-07-10T17:19:14.610Z,16.55
2023-07-10T17:24:14.834Z,16.55
2023-07-10T17:29:13.076Z,16.55
2023-07-10T17:34:13.410Z,16.55
2023-07-10T17:39:21.162Z,16.55
2023-07-10T17:44:10.854Z,16.55
2023-07-10T17:49:09.929Z,16.55
2023-07-10T17:54:09.340Z,16.55
2023-07-10T17:59:08.611Z,16.55
2023-07-10T18:04:08.156Z,16.55
2023-07-10T18:09:07.429Z,16.55
2023-07-10T18:14:06.587Z,16.55
2023-07-10T18:19:06.847Z,17.20
2023-07-10T18:24:05.791Z,16.55
2023-07-10T18:29:04.269Z,16.55
2023-07-10T18:34:03.325Z,17.84
2023-07-10T18:39:02.592Z,17.52
2023-07-10T18:44:01.957Z,17.20
2023-07-10T18:49:01.889Z,18.45
2023-07-10T18:54:00.205Z,16.92
2023-07-10T18:58:59.497Z,17.53
2023-07-10T19:03:58.723Z,16.92
2023-07-10T19:08:58.097Z,17.23
2023-07-10T19:13:58.310Z,17.53
2023-07-10T19:18:56.495Z,17.23
2023-07-10T19:23:55.640Z,17.23
2023-07-10T19:28:56.042Z,17.23
2023-07-10T19:33:54.292Z,16.90
2023-07-10T19:38:53.487Z,16.90
2023-07-10T19:43:53.634Z,16.90
2023-07-10T19:48:51.972Z,16.90
2023-07-10T19:53:51.141Z,18.40
2023-07-10T19:58:53.350Z,17.75
2023-07-10T20:03:49.509Z,17.75
2023-07-10T20:08:49.468Z,18.30
2023-07-10T20:13:47.871Z,18.30
2023-07-10T20:18:47.149Z,18.57
2023-07-10T20:23:46.240Z,18.57
2023-07-10T20:28:46.481Z,18.03
2023-07-10T20:33:45.503Z,17.89
2023-07-10T20:38:43.814Z,17.89
2023-07-10T20:43:43.191Z,17.89
2023-07-10T20:48:42.265Z,17.89
2023-07-10T20:53:43.560Z,17.89
2023-07-10T20:58:41.816Z,18.41
2023-07-10T21:03:40.135Z,18.41
2023-07-10T21:08:39.432Z,18.66
2023-07-10T21:13:37.734Z,18.41
2023-07-10T21:18:37.954Z,18.41
2023-07-10T21:23:38.191Z,18.91
2023-07-10T21:28:36.420Z,17.71
2023-07-10T21:33:35.638Z,18.66
2023-07-10T21:38:35.886Z,17.71
2023-07-10T21:43:34.217Z,17.71
2023-07-10T21:48:33.458Z,17.71
2023-07-10T21:53:34.698Z,17.46
2023-07-10T21:58:31.934Z,17.71
2023-07-10T22:03:32.323Z,17.71
2023-07-10T22:08:30.406Z,17.01
2023-07-10T22:13:29.626Z,17.63
2023-07-10T22:18:28.878Z,17.47
2023-07-10T22:23:28.112Z,17.19
2023-07-10T22:28:27.341Z,17.19
2023-07-10T22:33:27.595Z,17.19
2023-07-10T22:38:26.865Z,18.12
2023-07-10T22:43:25.103Z,18.12
2023-07-10T22:48:24.384Z,18.12
2023-07-10T22:53:24.609Z,17.82
2023-07-10T22:58:23.855Z,17.82
2023-07-10T23:03:22.159Z,17.47
2023-07-10T23:08:22.411Z,18.15
2023-07-10T23:13:22.644Z,17.21
2023-07-10T23:18:19.882Z,17.71
2023-07-10T23:23:19.141Z,17.96
2023-07-10T23:28:18.397Z,17.25
2023-07-10T23:33:19.635Z,17.96
2023-07-10T23:38:16.879Z,17.01
2023-07-10T23:43:16.122Z,17.25
2023-07-10T23:48:16.388Z,17.01
2023-07-10T23:53:15.605Z,17.25
2023-07-10T23:58:13.851Z,17.25
